Time;durP1;ratioP1;P1;durP2;ratioP2;P2;SDS_P1;SDS_P2;PMS_P1;PMS_P2;Temp;Humidity;BMP_temperature;BMP_pressure;BME280_temperature;BME280_humidity;BME280_pressure;Samples;Min_cycle;Max_cycle;Signal;HPM_P1;HPM_P2
2021/11/29 00:00:10;;;;;;;2.83;0.60;;;;;;;;;;4971782;28;21774;-74
2021/11/29 00:02:36;;;;;;;1.80;0.50;;;;;;;;;;4973787;28;20236;-76
2021/11/29 00:05:01;;;;;;;1.60;0.70;;;;;;;;;;4976692;28;20440;-75
2021/11/29 00:07:27;;;;;;;1.23;0.70;;;;;;;;;;4975674;28;20192;-77
2021/11/29 00:09:52;;;;;;;1.57;0.73;;;;;;;;;;4974365;28;20231;-74
2021/11/29 00:12:17;;;;;;;1.27;0.50;;;;;;;;;;4975256;28;20918;-75
2021/11/29 00:14:43;;;;;;;1.07;0.60;;;;;;;;;;4975717;28;20272;-78
2021/11/29 00:17:08;;;;;;;2.00;0.80;;;;;;;;;;4975871;28;20204;-77
2021/11/29 00:19:34;;;;;;;1.67;0.80;;;;;;;;;;4972711;28;20173;-77
2021/11/29 00:21:59;;;;;;;3.23;0.83;;;;;;;;;;4971173;28;20268;-75
2021/11/29 00:24:24;;;;;;;2.30;0.63;;;;;;;;;;4972180;28;20235;-75
2021/11/29 00:26:50;;;;;;;2.20;0.70;;;;;;;;;;4977630;28;20217;-77
2021/11/29 00:29:15;;;;;;;2.50;0.80;;;;;;;;;;4978423;28;20174;-77
2021/11/29 00:31:40;;;;;;;5.07;1.00;;;;;;;;;;4976408;28;20201;-76
2021/11/29 00:34:06;;;;;;;8.60;1.00;;;;;;;;;;4977129;28;20643;-78
2021/11/29 00:36:31;;;;;;;3.13;0.67;;;;;;;;;;4971033;28;20201;-76
2021/11/29 00:38:56;;;;;;;1.80;0.80;;;;;;;;;;4974601;28;20185;-77
2021/11/29 00:41:22;;;;;;;3.03;0.90;;;;;;;;;;4976690;28;20328;-76
2021/11/29 00:43:47;;;;;;;3.70;0.97;;;;;;;;;;4977646;28;20200;-76
2021/11/29 00:46:12;;;;;;;1.13;0.50;;;;;;;;;;4978713;28;20335;-79
2021/11/29 00:48:38;;;;;;;1.83;0.80;;;;;;;;;;4978159;28;20570;-75
2021/11/29 00:51:03;;;;;;;3.10;1.07;;;;;;;;;;4992063;28;20253;-78
2021/11/29 00:53:29;;;;;;;1.23;0.50;;;;;;;;;;4972342;28;20268;-75
2021/11/29 00:55:54;;;;;;;8.23;0.67;;;;;;;;;;4977918;28;20720;-76
2021/11/29 00:58:19;;;;;;;4.40;0.70;;;;;;;;;;4975330;28;20200;-75
2021/11/29 01:00:45;;;;;;;5.00;0.67;;;;;;;;;;4972281;28;20200;-77
2021/11/29 01:03:10;;;;;;;3.80;0.80;;;;;;;;;;4971496;28;20192;-77
2021/11/29 01:05:35;;;;;;;1.87;0.50;;;;;;;;;;4971482;28;20555;-78
2021/11/29 01:08:01;;;;;;;2.20;0.80;;;;;;;;;;4971172;28;20255;-77
2021/11/29 01:10:27;;;;;;;9.23;1.00;;;;;;;;;;4975460;28;20173;-78
2021/11/29 01:12:53;;;;;;;7.23;0.70;;;;;;;;;;4977627;28;20228;-77
2021/11/29 01:15:23;;;;;;;3.17;0.70;;;;;;;;;;4974435;28;20490;-79
2021/11/29 01:17:48;;;;;;;4.70;0.70;;;;;;;;;;4971897;28;20185;-78
2021/11/29 01:20:14;;;;;;;3.97;0.83;;;;;;;;;;4978570;28;20999;-75
2021/11/29 01:22:41;;;;;;;2.83;0.80;;;;;;;;;;4977292;28;20208;-76
2021/11/29 01:25:09;;;;;;;2.37;0.80;;;;;;;;;;4971690;28;20456;-76
2021/11/29 01:27:43;;;;;;;2.87;0.60;;;;;;;;;;4973815;28;20486;-77
2021/11/29 01:30:10;;;;;;;0.93;0.50;;;;;;;;;;4978026;28;20432;-79
2021/11/29 01:32:35;;;;;;;2.03;0.60;;;;;;;;;;4975407;28;20978;-79
2021/11/29 01:35:04;;;;;;;1.53;0.60;;;;;;;;;;4973729;28;20431;-73
2021/11/29 01:37:30;;;;;;;3.40;0.83;;;;;;;;;;4976818;28;20636;-77
2021/11/29 01:39:55;;;;;;;3.30;0.80;;;;;;;;;;4976253;28;20452;-77
2021/11/29 01:42:20;;;;;;;2.57;0.60;;;;;;;;;;4978399;28;20177;-74
2021/11/29 01:44:46;;;;;;;2.57;0.73;;;;;;;;;;4975989;28;20216;-77
2021/11/29 01:47:11;;;;;;;1.23;0.57;;;;;;;;;;4976836;28;20205;-74
2021/11/29 01:49:37;;;;;;;3.30;0.60;;;;;;;;;;4982033;28;20710;-74
2021/11/29 01:52:03;;;;;;;3.13;0.50;;;;;;;;;;4979393;28;20204;-77
2021/11/29 01:54:29;;;;;;;0.80;0.40;;;;;;;;;;4979430;28;20501;-76
2021/11/29 01:56:55;;;;;;;2.50;0.70;;;;;;;;;;4976560;28;20213;-79
2021/11/29 01:59:20;;;;;;;3.23;0.70;;;;;;;;;;4981276;28;20433;-77
2021/11/29 02:01:46;;;;;;;3.13;0.50;;;;;;;;;;4978758;28;20169;-77
2021/11/29 02:04:12;;;;;;;7.47;0.70;;;;;;;;;;4978141;28;20178;-76
2021/11/29 02:06:38;;;;;;;6.03;0.80;;;;;;;;;;4978498;28;20583;-75
2021/11/29 02:09:04;;;;;;;1.47;0.77;;;;;;;;;;4978369;28;20462;-75
2021/11/29 02:11:29;;;;;;;1.13;0.53;;;;;;;;;;4993877;28;20895;-78
2021/11/29 02:13:56;;;;;;;2.00;0.57;;;;;;;;;;4980985;28;20428;-76
2021/11/29 02:16:22;;;;;;;1.17;0.70;;;;;;;;;;4970495;28;20202;-78
2021/11/29 02:18:47;;;;;;;5.33;0.80;;;;;;;;;;4975336;28;20516;-75
2021/11/29 02:21:18;;;;;;;1.73;0.57;;;;;;;;;;4979431;28;20185;-77
2021/11/29 02:23:51;;;;;;;2.20;0.60;;;;;;;;;;4980330;28;20181;-74
2021/11/29 02:26:21;;;;;;;2.27;0.73;;;;;;;;;;4979432;28;20487;-78
2021/11/29 02:28:54;;;;;;;2.10;0.60;;;;;;;;;;4974671;28;24209;-75
2021/11/29 02:31:22;;;;;;;2.50;0.73;;;;;;;;;;4980529;28;20424;-75
2021/11/29 02:33:47;;;;;;;2.10;0.50;;;;;;;;;;4978264;28;20436;-78
2021/11/29 02:36:15;;;;;;;3.97;0.87;;;;;;;;;;4976716;28;20458;-78
2021/11/29 02:38:41;;;;;;;1.73;0.50;;;;;;;;;;4977881;28;20193;-75
2021/11/29 02:41:07;;;;;;;2.80;0.90;;;;;;;;;;4978286;28;20446;-79
2021/11/29 02:43:32;;;;;;;3.43;0.60;;;;;;;;;;4976238;28;20428;-77
2021/11/29 02:45:58;;;;;;;2.47;0.60;;;;;;;;;;4980640;28;20201;-74
2021/11/29 02:48:45;;;;;;;0.90;0.50;;;;;;;;;;4975751;28;20462;-79
2021/11/29 02:51:30;;;;;;;5.00;0.80;;;;;;;;;;4977701;28;20185;-77
2021/11/29 02:53:59;;;;;;;2.00;0.60;;;;;;;;;;4977681;28;21033;-75
2021/11/29 02:56:24;;;;;;;3.63;0.90;;;;;;;;;;4973827;28;20509;-78
2021/11/29 02:58:49;;;;;;;3.73;0.70;;;;;;;;;;4975609;28;20494;-78
2021/11/29 03:01:15;;;;;;;7.60;0.67;;;;;;;;;;4979825;28;20227;-76
2021/11/29 03:03:44;;;;;;;2.73;0.50;;;;;;;;;;4973974;28;20406;-76
2021/11/29 03:06:10;;;;;;;1.77;0.60;;;;;;;;;;4975797;28;20213;-78
2021/11/29 03:08:35;;;;;;;2.50;0.83;;;;;;;;;;4977667;28;20495;-78
2021/11/29 03:11:00;;;;;;;2.70;0.67;;;;;;;;;;4978255;28;20177;-78
2021/11/29 03:13:26;;;;;;;1.00;0.50;;;;;;;;;;4978243;28;20304;-75
2021/11/29 03:15:51;;;;;;;5.07;0.50;;;;;;;;;;4978103;28;20216;-75
2021/11/29 03:18:26;;;;;;;1.93;0.70;;;;;;;;;;4992735;28;20208;-77
2021/11/29 03:20:52;;;;;;;1.67;0.67;;;;;;;;;;4976100;28;20259;-76
2021/11/29 03:23:20;;;;;;;1.83;0.60;;;;;;;;;;4982617;28;20440;-76
2021/11/29 03:25:49;;;;;;;2.90;0.70;;;;;;;;;;4976372;28;20604;-79
2021/11/29 03:28:17;;;;;;;0.60;0.40;;;;;;;;;;4978080;28;20480;-74
2021/11/29 03:30:46;;;;;;;1.73;0.80;;;;;;;;;;4973027;28;20453;-76
2021/11/29 03:33:20;;;;;;;0.80;0.50;;;;;;;;;;4975374;28;20537;-76
2021/11/29 03:35:46;;;;;;;1.03;0.60;;;;;;;;;;4968487;28;21162;-75
2021/11/29 03:38:11;;;;;;;0.70;0.40;;;;;;;;;;4980050;28;20432;-76
2021/11/29 03:40:37;;;;;;;1.10;0.50;;;;;;;;;;4973582;28;20243;-79
2021/11/29 03:43:04;;;;;;;1.80;0.60;;;;;;;;;;4975960;28;20283;-77
2021/11/29 03:45:29;;;;;;;2.17;0.70;;;;;;;;;;4973224;28;20464;-77
2021/11/29 03:47:54;;;;;;;1.53;0.60;;;;;;;;;;4980935;28;21400;-79
2021/11/29 03:50:20;;;;;;;0.60;0.50;;;;;;;;;;4976652;28;20181;-76
2021/11/29 03:52:48;;;;;;;1.33;0.60;;;;;;;;;;4973813;28;20256;-79
2021/11/29 03:55:14;;;;;;;0.83;0.60;;;;;;;;;;4973326;28;20240;-76
2021/11/29 03:57:39;;;;;;;1.50;0.60;;;;;;;;;;4976428;28;20451;-75
2021/11/29 04:00:06;;;;;;;1.33;0.70;;;;;;;;;;4972797;28;20181;-75
2021/11/29 04:02:31;;;;;;;2.57;0.80;;;;;;;;;;4973591;28;20182;-76
2021/11/29 04:04:56;;;;;;;1.47;0.70;;;;;;;;;;4973099;28;20475;-74
2021/11/29 04:07:22;;;;;;;1.23;0.70;;;;;;;;;;4976628;28;20578;-74
2021/11/29 04:09:50;;;;;;;0.70;0.70;;;;;;;;;;4979459;28;20197;-75
2021/11/29 04:12:16;;;;;;;1.60;0.80;;;;;;;;;;4973049;28;20280;-76
2021/11/29 04:14:41;;;;;;;1.33;0.80;;;;;;;;;;4976058;28;20448;-76
2021/11/29 04:17:07;;;;;;;1.03;0.83;;;;;;;;;;4971246;28;20717;-76
2021/11/29 04:19:37;;;;;;;1.90;0.70;;;;;;;;;;4975971;28;20189;-75
2021/11/29 04:22:05;;;;;;;2.60;1.20;;;;;;;;;;4977145;28;20208;-77
2021/11/29 04:24:31;;;;;;;2.10;0.90;;;;;;;;;;4978624;28;20910;-77
2021/11/29 04:27:02;;;;;;;3.50;1.10;;;;;;;;;;4974768;28;20455;-76
2021/11/29 04:29:29;;;;;;;1.27;1.17;;;;;;;;;;4970740;28;20166;-76
2021/11/29 04:31:55;;;;;;;1.07;0.97;;;;;;;;;;4970921;28;20905;-74
2021/11/29 04:34:20;;;;;;;1.20;1.10;;;;;;;;;;4971177;28;20429;-78
2021/11/29 04:36:46;;;;;;;1.50;1.40;;;;;;;;;;4979863;28;20231;-76
2021/11/29 04:39:12;;;;;;;1.90;1.70;;;;;;;;;;4975951;28;20188;-81
2021/11/29 04:41:37;;;;;;;1.63;1.53;;;;;;;;;;4977853;28;20181;-78
2021/11/29 04:44:02;;;;;;;1.83;1.73;;;;;;;;;;4974436;28;20177;-78
2021/11/29 04:46:28;;;;;;;2.83;2.50;;;;;;;;;;4975088;28;20295;-76
2021/11/29 04:48:53;;;;;;;3.30;3.00;;;;;;;;;;4980389;28;20292;-76
2021/11/29 04:51:18;;;;;;;3.20;2.90;;;;;;;;;;4976513;28;20185;-80
2021/11/29 04:53:44;;;;;;;4.40;3.10;;;;;;;;;;4977728;28;20215;-76
2021/11/29 04:56:09;;;;;;;4.60;3.57;;;;;;;;;;4976299;28;20208;-77
2021/11/29 04:58:35;;;;;;;3.33;3.03;;;;;;;;;;4971995;28;20667;-75
2021/11/29 05:01:00;;;;;;;3.20;3.00;;;;;;;;;;4968703;28;20182;-76
2021/11/29 05:03:26;;;;;;;4.67;4.13;;;;;;;;;;4973537;28;20268;-75
2021/11/29 05:05:52;;;;;;;5.13;4.30;;;;;;;;;;4973391;28;20634;-75
2021/11/29 05:08:17;;;;;;;5.73;5.17;;;;;;;;;;4972124;28;20583;-77
2021/11/29 05:10:42;;;;;;;8.03;5.80;;;;;;;;;;4975261;28;20173;-79
2021/11/29 05:13:09;;;;;;;6.50;5.90;;;;;;;;;;4974415;28;20180;-75
2021/11/29 05:15:34;;;;;;;7.80;5.73;;;;;;;;;;4970915;28;20912;-75
2021/11/29 05:17:59;;;;;;;5.43;4.93;;;;;;;;;;4976955;28;20436;-76
2021/11/29 05:20:25;;;;;;;8.13;4.97;;;;;;;;;;4974092;28;20205;-76
2021/11/29 05:22:50;;;;;;;7.27;5.00;;;;;;;;;;4977205;28;20201;-75
2021/11/29 05:25:19;;;;;;;6.50;5.40;;;;;;;;;;4977467;28;26474;-76
2021/11/29 05:27:44;;;;;;;5.70;5.10;;;;;;;;;;4972689;28;20287;-76
2021/11/29 05:30:09;;;;;;;8.30;6.50;;;;;;;;;;4979362;28;20440;-75
2021/11/29 05:32:35;;;;;;;9.40;7.30;;;;;;;;;;4973550;28;20189;-76
2021/11/29 05:35:01;;;;;;;7.30;6.10;;;;;;;;;;4975075;28;20299;-76
2021/11/29 05:37:26;;;;;;;8.10;7.30;;;;;;;;;;4978442;28;20729;-76
2021/11/29 05:39:52;;;;;;;6.80;6.10;;;;;;;;;;4976800;28;20571;-79
2021/11/29 05:42:17;;;;;;;8.93;6.93;;;;;;;;;;4971273;28;20287;-76
2021/11/29 05:44:43;;;;;;;8.50;6.70;;;;;;;;;;4972198;28;20271;-74
2021/11/29 05:47:08;;;;;;;8.03;6.83;;;;;;;;;;4970864;28;20205;-75
2021/11/29 05:49:34;;;;;;;7.30;6.60;;;;;;;;;;4976200;28;20292;-76
2021/11/29 05:52:00;;;;;;;8.40;7.10;;;;;;;;;;4986913;28;20619;-80
2021/11/29 05:54:26;;;;;;;7.43;6.53;;;;;;;;;;4964948;28;20173;-75
2021/11/29 05:56:51;;;;;;;8.23;6.80;;;;;;;;;;4973303;28;20469;-79
2021/11/29 05:59:20;;;;;;;9.57;7.00;;;;;;;;;;4972696;28;20196;-76
2021/11/29 06:01:45;;;;;;;9.23;7.70;;;;;;;;;;4971811;28;20250;-76
2021/11/29 06:04:11;;;;;;;9.90;8.40;;;;;;;;;;4972659;28;20439;-77
2021/11/29 06:06:36;;;;;;;9.63;7.97;;;;;;;;;;4976844;28;20217;-77
2021/11/29 06:09:02;;;;;;;11.20;8.17;;;;;;;;;;4974653;28;21179;-79
2021/11/29 06:11:27;;;;;;;9.63;8.30;;;;;;;;;;4974817;28;20197;-80
2021/11/29 06:13:52;;;;;;;11.53;9.10;;;;;;;;;;4972686;28;20268;-74
2021/11/29 06:16:18;;;;;;;13.97;8.80;;;;;;;;;;4970948;28;20866;-74
2021/11/29 06:18:43;;;;;;;12.20;9.07;;;;;;;;;;4984310;28;20173;-71
2021/11/29 06:21:09;;;;;;;11.60;9.33;;;;;;;;;;4975486;28;20181;-72
2021/11/29 06:23:37;;;;;;;10.63;9.53;;;;;;;;;;4974087;28;20192;-73
2021/11/29 06:26:03;;;;;;;10.70;8.37;;;;;;;;;;4971917;28;21023;-79
2021/11/29 06:28:28;;;;;;;9.90;8.90;;;;;;;;;;4972730;28;20463;-77
2021/11/29 06:30:54;;;;;;;10.20;9.00;;;;;;;;;;4983113;28;20181;-79
2021/11/29 06:33:19;;;;;;;9.00;8.00;;;;;;;;;;4975848;28;20276;-78
2021/11/29 06:35:44;;;;;;;10.93;8.97;;;;;;;;;;4976357;28;20259;-77
2021/11/29 06:38:10;;;;;;;9.30;7.97;;;;;;;;;;4977685;28;20320;-79
2021/11/29 06:40:35;;;;;;;9.00;8.00;;;;;;;;;;4978125;28;20696;-76
2021/11/29 06:43:01;;;;;;;10.30;8.93;;;;;;;;;;4978616;28;21104;-79
2021/11/29 06:45:26;;;;;;;9.87;7.83;;;;;;;;;;4971677;28;20196;-78
2021/11/29 06:47:52;;;;;;;11.00;8.40;;;;;;;;;;4977513;28;20205;-74
2021/11/29 06:50:18;;;;;;;11.10;9.10;;;;;;;;;;4976758;28;20460;-77
2021/11/29 06:52:44;;;;;;;11.17;9.40;;;;;;;;;;4976283;28;20342;-73
2021/11/29 06:55:12;;;;;;;10.77;9.10;;;;;;;;;;4977404;28;20459;-75
2021/11/29 06:57:38;;;;;;;11.60;9.40;;;;;;;;;;4971609;28;20443;-76
2021/11/29 07:00:05;;;;;;;11.47;9.30;;;;;;;;;;4979367;28;20455;-75
2021/11/29 07:02:33;;;;;;;11.00;8.70;;;;;;;;;;4978368;28;20581;-80
2021/11/29 07:04:59;;;;;;;8.83;7.93;;;;;;;;;;4978852;28;20432;-77
2021/11/29 07:07:24;;;;;;;10.87;9.20;;;;;;;;;;4970649;28;21001;-75
2021/11/29 07:09:49;;;;;;;13.87;9.37;;;;;;;;;;4980618;28;20428;-75
2021/11/29 07:12:18;;;;;;;13.73;8.57;;;;;;;;;;4979630;28;20181;-76
2021/11/29 07:14:43;;;;;;;11.57;8.70;;;;;;;;;;4987437;28;20248;-76
2021/11/29 07:17:09;;;;;;;11.03;9.07;;;;;;;;;;4977327;28;20451;-77
2021/11/29 07:19:34;;;;;;;11.67;8.93;;;;;;;;;;4980385;28;20646;-76
2021/11/29 07:21:59;;;;;;;15.77;9.57;;;;;;;;;;4979256;28;20181;-74
2021/11/29 07:24:25;;;;;;;11.53;9.00;;;;;;;;;;4973527;28;20178;-74
2021/11/29 07:26:50;;;;;;;10.97;9.03;;;;;;;;;;4971007;28;20220;-75
2021/11/29 07:29:16;;;;;;;10.53;8.30;;;;;;;;;;4967889;28;20211;-74
2021/11/29 07:31:42;;;;;;;9.27;7.70;;;;;;;;;;4974789;28;20611;-75
2021/11/29 07:34:08;;;;;;;9.87;8.60;;;;;;;;;;4975198;28;20557;-73
2021/11/29 07:36:34;;;;;;;9.50;8.47;;;;;;;;;;4972733;28;20797;-77
2021/11/29 07:39:00;;;;;;;11.30;8.77;;;;;;;;;;4975839;28;20215;-74
2021/11/29 07:41:25;;;;;;;9.80;8.53;;;;;;;;;;4973310;28;20440;-75
2021/11/29 07:43:51;;;;;;;10.20;8.30;;;;;;;;;;4981121;28;20220;-72
2021/11/29 07:46:16;;;;;;;11.30;8.10;;;;;;;;;;4972098;28;20205;-74
2021/11/29 07:48:42;;;;;;;11.53;8.77;;;;;;;;;;4972337;28;20601;-74
2021/11/29 07:51:07;;;;;;;14.47;9.00;;;;;;;;;;4974704;28;20798;-76
2021/11/29 07:53:35;;;;;;;10.43;8.83;;;;;;;;;;4976298;28;20182;-75
2021/11/29 07:56:01;;;;;;;14.20;8.10;;;;;;;;;;4976092;28;20806;-77
2021/11/29 07:58:26;;;;;;;9.77;8.27;;;;;;;;;;4974935;28;20444;-74
2021/11/29 08:00:52;;;;;;;13.50;9.20;;;;;;;;;;4973718;28;20188;-72
2021/11/29 08:03:18;;;;;;;10.50;9.20;;;;;;;;;;4969983;28;20181;-78
2021/11/29 08:05:43;;;;;;;12.67;8.57;;;;;;;;;;4973151;28;20838;-74
2021/11/29 08:08:11;;;;;;;9.73;8.73;;;;;;;;;;4975081;28;20203;-73
2021/11/29 08:10:38;;;;;;;13.47;9.00;;;;;;;;;;4973125;28;20291;-75
2021/11/29 08:13:04;;;;;;;13.43;9.43;;;;;;;;;;4976905;28;20435;-74
2021/11/29 08:15:29;;;;;;;10.10;8.27;;;;;;;;;;4978233;28;20464;-75
2021/11/29 08:17:55;;;;;;;14.17;10.80;;;;;;;;;;4968821;28;20491;-76
2021/11/29 08:20:24;;;;;;;11.20;9.53;;;;;;;;;;4973648;28;20383;-75
2021/11/29 08:22:49;;;;;;;12.27;8.97;;;;;;;;;;4976927;28;20860;-76
2021/11/29 08:25:15;;;;;;;11.90;9.87;;;;;;;;;;4970966;28;20460;-78
2021/11/29 08:27:40;;;;;;;14.60;10.13;;;;;;;;;;4976026;28;20210;-76
2021/11/29 08:30:08;;;;;;;12.30;9.90;;;;;;;;;;4967176;28;20311;-77
2021/11/29 08:32:33;;;;;;;13.50;9.50;;;;;;;;;;4949335;28;20215;-74
2021/11/29 08:34:59;;;;;;;10.50;8.50;;;;;;;;;;4976923;28;20436;-73
2021/11/29 08:37:24;;;;;;;12.57;8.60;;;;;;;;;;4973773;28;20188;-76
2021/11/29 08:39:50;;;;;;;13.47;9.90;;;;;;;;;;4972132;28;20185;-77
2021/11/29 08:42:15;;;;;;;12.70;9.20;;;;;;;;;;4976293;28;20181;-77
2021/11/29 08:44:41;;;;;;;12.40;9.33;;;;;;;;;;4978556;28;20651;-77
2021/11/29 08:47:06;;;;;;;11.13;8.67;;;;;;;;;;4975989;28;20200;-78
2021/11/29 08:49:31;;;;;;;16.37;9.47;;;;;;;;;;4977254;28;20181;-75
2021/11/29 08:51:57;;;;;;;12.30;10.27;;;;;;;;;;4976862;28;20259;-73
2021/11/29 08:54:23;;;;;;;13.33;9.90;;;;;;;;;;4978143;28;20199;-75
2021/11/29 08:56:48;;;;;;;10.90;8.73;;;;;;;;;;4991760;28;20224;-75
2021/11/29 08:59:15;;;;;;;13.23;10.67;;;;;;;;;;4972738;28;21588;-78
2021/11/29 09:01:40;;;;;;;12.37;10.43;;;;;;;;;;4967682;28;20622;-74
2021/11/29 09:04:05;;;;;;;12.93;9.93;;;;;;;;;;4975277;28;20435;-74
2021/11/29 09:06:31;;;;;;;12.23;10.40;;;;;;;;;;4972260;28;20196;-77
2021/11/29 09:08:56;;;;;;;13.13;9.43;;;;;;;;;;4975016;28;20204;-75
2021/11/29 09:11:22;;;;;;;16.87;12.57;;;;;;;;;;4975830;28;20292;-76
2021/11/29 09:13:47;;;;;;;19.93;14.07;;;;;;;;;;4973857;28;20192;-77
2021/11/29 09:16:15;;;;;;;15.47;11.63;;;;;;;;;;4971389;28;20625;-74
2021/11/29 09:18:40;;;;;;;16.70;10.37;;;;;;;;;;4972931;28;20896;-75
2021/11/29 09:21:06;;;;;;;14.30;10.13;;;;;;;;;;4973781;28;20440;-76
2021/11/29 09:23:31;;;;;;;15.10;10.50;;;;;;;;;;4979871;28;20200;-73
2021/11/29 09:25:57;;;;;;;13.20;10.53;;;;;;;;;;4968997;28;20303;-77
2021/11/29 09:28:23;;;;;;;14.90;10.60;;;;;;;;;;4971526;28;20208;-75
2021/11/29 09:30:49;;;;;;;13.43;10.60;;;;;;;;;;4975183;28;20992;-73
2021/11/29 09:33:15;;;;;;;12.70;10.43;;;;;;;;;;4977286;28;20754;-76
2021/11/29 09:35:40;;;;;;;10.90;9.20;;;;;;;;;;4978045;28;20196;-79
2021/11/29 09:38:09;;;;;;;12.70;9.63;;;;;;;;;;4973098;28;20436;-77
2021/11/29 09:40:37;;;;;;;10.33;9.10;;;;;;;;;;4977328;28;20188;-75
2021/11/29 09:43:04;;;;;;;9.73;8.30;;;;;;;;;;4966825;28;20424;-74
2021/11/29 09:45:29;;;;;;;9.43;8.13;;;;;;;;;;4976989;28;20468;-73
2021/11/29 09:47:55;;;;;;;10.87;8.60;;;;;;;;;;4979323;28;21460;-78
2021/11/29 09:50:21;;;;;;;10.43;8.80;;;;;;;;;;4992257;28;20181;-73
2021/11/29 09:52:46;;;;;;;15.90;8.73;;;;;;;;;;4979402;28;20428;-76
2021/11/29 09:55:13;;;;;;;13.27;8.50;;;;;;;;;;4973730;28;20279;-77
2021/11/29 09:57:40;;;;;;;10.77;8.80;;;;;;;;;;4974434;28;20219;-77
2021/11/29 10:00:07;;;;;;;10.50;7.83;;;;;;;;;;4971964;28;20443;-75
2021/11/29 10:02:32;;;;;;;11.87;8.27;;;;;;;;;;4977456;28;21197;-78
2021/11/29 10:04:57;;;;;;;9.97;8.57;;;;;;;;;;4979299;28;20455;-76
2021/11/29 10:07:26;;;;;;;10.70;8.87;;;;;;;;;;4975974;28;20177;-73
2021/11/29 10:09:55;;;;;;;11.20;9.20;;;;;;;;;;4982449;28;20251;-75
2021/11/29 10:12:21;;;;;;;13.10;8.77;;;;;;;;;;4982751;28;20431;-75
2021/11/29 10:15:06;;;;;;;9.27;8.10;;;;;;;;;;4980882;28;20468;-76
2021/11/29 10:17:31;;;;;;;10.27;8.37;;;;;;;;;;4972021;28;20203;-73
2021/11/29 10:19:57;;;;;;;10.47;8.70;;;;;;;;;;4976685;28;21912;-75
2021/11/29 10:22:23;;;;;;;10.97;8.60;;;;;;;;;;4978665;28;20555;-74
2021/11/29 10:24:50;;;;;;;7.80;6.50;;;;;;;;;;4979833;28;20208;-74
2021/11/29 10:27:16;;;;;;;8.10;7.13;;;;;;;;;;4973606;28;20539;-77
2021/11/29 10:29:52;;;;;;;9.67;7.30;;;;;;;;;;4976202;28;21023;-78
2021/11/29 10:32:30;;;;;;;8.00;6.90;;;;;;;;;;4978379;28;20542;-75
2021/11/29 10:34:55;;;;;;;7.70;6.73;;;;;;;;;;4982225;28;20443;-75
2021/11/29 10:37:26;;;;;;;7.80;6.97;;;;;;;;;;4976658;28;20436;-77
2021/11/29 10:39:52;;;;;;;9.63;7.60;;;;;;;;;;4978916;28;20699;-74
2021/11/29 10:42:17;;;;;;;8.20;6.63;;;;;;;;;;4981456;28;20946;-74
2021/11/29 10:44:43;;;;;;;8.33;6.60;;;;;;;;;;4972553;28;20483;-78
2021/11/29 10:47:13;;;;;;;7.10;6.40;;;;;;;;;;4983485;28;20233;-75
2021/11/29 10:49:40;;;;;;;12.47;6.13;;;;;;;;;;4980607;28;20443;-71
2021/11/29 10:52:07;;;;;;;9.53;6.53;;;;;;;;;;4973815;28;20523;-74
2021/11/29 10:54:34;;;;;;;8.73;6.80;;;;;;;;;;4976089;28;21014;-75
2021/11/29 10:57:00;;;;;;;7.50;6.23;;;;;;;;;;4976219;28;20468;-74
2021/11/29 10:59:34;;;;;;;6.30;5.10;;;;;;;;;;4976640;28;20464;-76
2021/11/29 11:02:01;;;;;;;7.67;6.57;;;;;;;;;;4963274;28;20497;-75
2021/11/29 11:04:30;;;;;;;6.23;5.63;;;;;;;;;;4974968;28;20439;-73
2021/11/29 11:06:57;;;;;;;6.07;5.27;;;;;;;;;;4972502;28;20581;-75
2021/11/29 11:09:23;;;;;;;6.93;6.23;;;;;;;;;;4981514;28;20463;-74
2021/11/29 11:11:50;;;;;;;8.10;6.57;;;;;;;;;;4980769;28;20416;-73
2021/11/29 11:14:17;;;;;;;6.33;5.73;;;;;;;;;;4979298;28;20436;-74
2021/11/29 11:17:03;;;;;;;7.70;6.17;;;;;;;;;;4979158;28;20447;-75
2021/11/29 11:19:40;;;;;;;6.17;5.57;;;;;;;;;;4980060;28;20452;-74
2021/11/29 11:22:14;;;;;;;7.27;6.03;;;;;;;;;;4980881;28;20981;-73
2021/11/29 11:24:50;;;;;;;6.83;5.50;;;;;;;;;;4978360;28;20444;-75
2021/11/29 11:27:15;;;;;;;6.00;5.40;;;;;;;;;;4982442;28;20983;-74
2021/11/29 11:29:40;;;;;;;8.93;5.47;;;;;;;;;;4980684;28;20443;-73
2021/11/29 11:32:11;;;;;;;5.60;4.73;;;;;;;;;;4983364;28;20679;-71
2021/11/29 11:34:37;;;;;;;5.00;4.50;;;;;;;;;;4983770;28;20205;-73
2021/11/29 11:37:03;;;;;;;4.60;4.20;;;;;;;;;;4978659;28;21084;-75
2021/11/29 11:39:28;;;;;;;5.97;4.10;;;;;;;;;;4985310;28;20947;-73
2021/11/29 11:41:54;;;;;;;5.13;4.50;;;;;;;;;;4983240;28;20436;-72
2021/11/29 11:44:20;;;;;;;4.60;4.00;;;;;;;;;;5000355;28;20185;-75
2021/11/29 11:46:45;;;;;;;3.97;3.63;;;;;;;;;;4982677;28;20216;-75
2021/11/29 11:49:11;;;;;;;6.83;4.00;;;;;;;;;;4982872;28;20225;-74
2021/11/29 11:51:38;;;;;;;4.67;4.10;;;;;;;;;;4983390;28;20217;-74
2021/11/29 11:54:04;;;;;;;3.80;3.40;;;;;;;;;;4984890;28;20177;-74
2021/11/29 11:56:29;;;;;;;4.20;3.83;;;;;;;;;;4981599;28;20456;-74
2021/11/29 11:59:02;;;;;;;6.53;4.97;;;;;;;;;;4981040;28;20816;-74
2021/11/29 12:01:28;;;;;;;6.13;4.93;;;;;;;;;;4978554;28;20182;-73
2021/11/29 12:03:54;;;;;;;4.60;4.13;;;;;;;;;;4987617;28;20447;-73
2021/11/29 12:06:20;;;;;;;5.00;4.50;;;;;;;;;;4984953;28;20491;-73
2021/11/29 12:08:49;;;;;;;5.00;4.50;;;;;;;;;;4982759;28;20802;-74
2021/11/29 12:11:25;;;;;;;4.80;4.30;;;;;;;;;;4974326;28;20493;-74
2021/11/29 12:13:59;;;;;;;4.40;4.00;;;;;;;;;;4976496;28;25085;-76
2021/11/29 12:16:36;;;;;;;4.33;3.93;;;;;;;;;;4975442;28;20465;-74
2021/11/29 12:19:01;;;;;;;4.87;3.40;;;;;;;;;;4976969;28;20590;-72
2021/11/29 12:21:33;;;;;;;4.10;3.70;;;;;;;;;;4974870;28;20812;-74
2021/11/29 12:24:04;;;;;;;7.83;7.03;;;;;;;;;;4974962;28;20181;-72
2021/11/29 12:26:48;;;;;;;5.40;4.90;;;;;;;;;;4967590;28;20988;-73
2021/11/29 12:29:20;;;;;;;8.33;3.80;;;;;;;;;;4975957;28;20602;-75
2021/11/29 12:31:46;;;;;;;4.40;3.20;;;;;;;;;;4979042;28;20433;-73
2021/11/29 12:34:11;;;;;;;3.63;3.17;;;;;;;;;;4977854;28;20463;-73
2021/11/29 12:36:55;;;;;;;5.80;4.30;;;;;;;;;;4971537;28;20821;-72
2021/11/29 12:39:39;;;;;;;4.17;3.77;;;;;;;;;;4980361;28;20189;-74
2021/11/29 12:42:05;;;;;;;3.37;2.97;;;;;;;;;;4978298;28;20444;-74
2021/11/29 12:44:59;;;;;;;5.37;4.10;;;;;;;;;;4978092;28;20463;-72
2021/11/29 12:47:24;;;;;;;5.30;4.47;;;;;;;;;;4963540;28;20193;-70
2021/11/29 12:49:51;;;;;;;5.87;4.00;;;;;;;;;;4977611;28;20451;-73
2021/11/29 12:52:47;;;;;;;3.37;3.03;;;;;;;;;;4977526;28;20190;-75
2021/11/29 12:55:18;;;;;;;4.23;3.37;;;;;;;;;;4971279;28;20436;-79
2021/11/29 12:57:44;;;;;;;3.33;3.00;;;;;;;;;;4969685;28;20862;-78
2021/11/29 13:00:29;;;;;;;7.63;3.37;;;;;;;;;;4975011;28;20494;-77
2021/11/29 13:02:55;;;;;;;3.40;3.10;;;;;;;;;;4974734;28;20200;-76
2021/11/29 13:05:23;;;;;;;6.33;3.53;;;;;;;;;;4976106;28;20456;-77
2021/11/29 13:08:08;;;;;;;4.73;4.10;;;;;;;;;;4973378;28;20587;-76
2021/11/29 13:10:52;;;;;;;4.43;4.03;;;;;;;;;;4978511;28;20454;-73
2021/11/29 13:13:36;;;;;;;4.27;3.17;;;;;;;;;;4966594;28;20462;-75
2021/11/29 13:16:04;;;;;;;4.97;4.07;;;;;;;;;;4970615;28;20458;-74
2021/11/29 13:21:17;;;;;;;4.57;3.87;;;;;;;;;;4970652;28;20561;-74
2021/11/29 13:23:48;;;;;;;4.73;3.80;;;;;;;;;;4974705;28;20433;-73
2021/11/29 13:26:14;;;;;;;3.60;3.30;;;;;;;;;;4974746;28;20451;-74
2021/11/29 13:28:41;;;;;;;4.80;4.20;;;;;;;;;;4976276;28;20504;-73
2021/11/29 13:31:07;;;;;;;4.90;4.40;;;;;;;;;;4971856;28;20188;-74
2021/11/29 13:33:34;;;;;;;6.33;4.27;;;;;;;;;;4974849;28;20428;-75
2021/11/29 13:36:06;;;;;;;4.07;3.77;;;;;;;;;;4973710;28;21105;-74
2021/11/29 13:38:32;;;;;;;4.33;3.93;;;;;;;;;;4976439;28;20439;-76
2021/11/29 13:40:57;;;;;;;4.20;3.63;;;;;;;;;;4979637;28;20476;-76
2021/11/29 13:43:28;;;;;;;3.93;3.63;;;;;;;;;;4977333;28;20189;-76
2021/11/29 13:45:53;;;;;;;5.50;4.07;;;;;;;;;;4974743;28;20196;-76
2021/11/29 13:48:20;;;;;;;11.53;4.10;;;;;;;;;;4982935;28;20506;-75
2021/11/29 13:50:50;;;;;;;5.00;4.53;;;;;;;;;;4977730;28;20172;-74
2021/11/29 13:53:19;;;;;;;3.70;3.30;;;;;;;;;;4982337;28;20431;-77
2021/11/29 13:55:45;;;;;;;4.83;4.27;;;;;;;;;;4971972;28;20463;-78
2021/11/29 13:58:13;;;;;;;4.87;4.23;;;;;;;;;;4977971;28;20480;-74
2021/11/29 14:00:40;;;;;;;3.83;3.43;;;;;;;;;;4978957;28;20521;-78
2021/11/29 14:03:16;;;;;;;3.90;3.37;;;;;;;;;;4979081;28;20444;-75
2021/11/29 14:05:48;;;;;;;3.90;2.97;;;;;;;;;;4976224;28;20458;-74
2021/11/29 14:08:23;;;;;;;5.30;3.33;;;;;;;;;;4974568;28;20483;-76
2021/11/29 14:10:54;;;;;;;3.10;2.50;;;;;;;;;;4974130;28;21143;-73
2021/11/29 14:13:24;;;;;;;4.03;2.97;;;;;;;;;;4977661;28;20431;-75
2021/11/29 14:16:08;;;;;;;3.20;2.80;;;;;;;;;;4972875;28;20550;-74
2021/11/29 14:18:41;;;;;;;3.70;3.00;;;;;;;;;;4976020;28;20479;-77
2021/11/29 14:21:08;;;;;;;4.00;2.83;;;;;;;;;;4972917;28;20438;-75
2021/11/29 14:23:39;;;;;;;5.73;2.80;;;;;;;;;;4974986;28;20446;-76
2021/11/29 14:26:05;;;;;;;4.00;2.67;;;;;;;;;;4974566;28;20447;-74
2021/11/29 14:28:31;;;;;;;3.47;3.17;;;;;;;;;;4974669;28;20456;-75
2021/11/29 14:30:56;;;;;;;3.40;2.90;;;;;;;;;;4977392;28;20439;-75
2021/11/29 14:33:24;;;;;;;3.87;3.40;;;;;;;;;;4975894;28;20460;-73
2021/11/29 14:35:49;;;;;;;3.77;3.07;;;;;;;;;;4973081;28;20207;-74
2021/11/29 14:38:15;;;;;;;4.07;3.67;;;;;;;;;;4973978;28;20448;-73
2021/11/29 14:40:40;;;;;;;3.53;3.23;;;;;;;;;;4977889;28;20532;-73